sensor_id;sensor_type;location;lat;lon;timestamp;P1;durP1;ratioP1;P2;durP2;ratioP2
76729;SDS011;65653;53.106;18.046;2023-09-19T00:02:20;15.40;;;12.10;;
76729;SDS011;65653;53.106;18.046;2023-09-19T00:04:46;17.40;;;12.90;;
76729;SDS011;65653;53.106;18.046;2023-09-19T00:07:15;17.10;;;13.50;;
76729;SDS011;65653;53.106;18.046;2023-09-19T00:09:42;17.70;;;13.30;;
76729;SDS011;65653;53.106;18.046;2023-09-19T00:12:10;16.70;;;13.70;;
76729;SDS011;65653;53.106;18.046;2023-09-19T00:14:39;15.10;;;13.20;;
76729;SDS011;65653;53.106;18.046;2023-09-19T00:17:06;16.60;;;13.00;;
76729;SDS011;65653;53.106;18.046;2023-09-19T00:19:34;20.60;;;14.80;;
76729;SDS011;65653;53.106;18.046;2023-09-19T00:22:01;17.50;;;13.90;;
76729;SDS011;65653;53.106;18.046;2023-09-19T00:24:28;15.30;;;12.80;;
76729;SDS011;65653;53.106;18.046;2023-09-19T00:26:55;16.90;;;12.80;;
76729;SDS011;65653;53.106;18.046;2023-09-19T00:29:21;15.80;;;13.60;;
76729;SDS011;65653;53.106;18.046;2023-09-19T00:31:49;15.30;;;12.10;;
76729;SDS011;65653;53.106;18.046;2023-09-19T00:34:16;15.30;;;12.80;;
76729;SDS011;65653;53.106;18.046;2023-09-19T00:36:43;15.20;;;12.60;;
76729;SDS011;65653;53.106;18.046;2023-09-19T00:39:09;18.40;;;11.90;;
76729;SDS011;65653;53.106;18.046;2023-09-19T00:41:36;15.60;;;12.60;;
76729;SDS011;65653;53.106;18.046;2023-09-19T00:44:04;12.70;;;10.70;;
76729;SDS011;65653;53.106;18.046;2023-09-19T00:46:31;11.40;;;8.20;;
76729;SDS011;65653;53.106;18.046;2023-09-19T00:48:58;7.60;;;5.90;;
76729;SDS011;65653;53.106;18.046;2023-09-19T00:51:26;7.00;;;5.40;;
76729;SDS011;65653;53.106;18.046;2023-09-19T00:53:53;10.60;;;5.80;;
76729;SDS011;65653;53.106;18.046;2023-09-19T00:56:20;8.80;;;5.40;;
76729;SDS011;65653;53.106;18.046;2023-09-19T00:58:47;9.00;;;5.20;;
76729;SDS011;65653;53.106;18.046;2023-09-19T01:01:14;7.40;;;4.60;;
76729;SDS011;65653;53.106;18.046;2023-09-19T01:03:41;7.00;;;5.00;;
76729;SDS011;65653;53.106;18.046;2023-09-19T01:06:08;6.90;;;4.80;;
76729;SDS011;65653;53.106;18.046;2023-09-19T01:08:35;8.30;;;4.50;;
76729;SDS011;65653;53.106;18.046;2023-09-19T01:11:13;6.80;;;4.50;;
76729;SDS011;65653;53.106;18.046;2023-09-19T01:16:32;6.40;;;4.20;;
76729;SDS011;65653;53.106;18.046;2023-09-19T01:28:53;5.30;;;3.90;;
76729;SDS011;65653;53.106;18.046;2023-09-19T01:31:28;4.70;;;3.90;;
76729;SDS011;65653;53.106;18.046;2023-09-19T01:34:02;5.30;;;3.70;;
76729;SDS011;65653;53.106;18.046;2023-09-19T01:36:37;7.00;;;4.10;;
76729;SDS011;65653;53.106;18.046;2023-09-19T01:39:08;6.30;;;3.50;;
76729;SDS011;65653;53.106;18.046;2023-09-19T01:47:34;4.10;;;2.80;;
76729;SDS011;65653;53.106;18.046;2023-09-19T01:52:42;4.70;;;3.00;;
76729;SDS011;65653;53.106;18.046;2023-09-19T01:55:15;4.90;;;2.90;;
76729;SDS011;65653;53.106;18.046;2023-09-19T02:00:43;5.20;;;3.00;;
76729;SDS011;65653;53.106;18.046;2023-09-19T02:03:12;5.00;;;3.30;;
76729;SDS011;65653;53.106;18.046;2023-09-19T02:05:40;6.00;;;3.60;;
76729;SDS011;65653;53.106;18.046;2023-09-19T02:08:06;4.60;;;3.20;;
76729;SDS011;65653;53.106;18.046;2023-09-19T02:10:34;4.70;;;2.90;;
76729;SDS011;65653;53.106;18.046;2023-09-19T02:13:01;4.00;;;3.40;;
76729;SDS011;65653;53.106;18.046;2023-09-19T02:15:30;8.70;;;4.50;;
76729;SDS011;65653;53.106;18.046;2023-09-19T02:18:00;5.60;;;3.90;;
76729;SDS011;65653;53.106;18.046;2023-09-19T02:20:26;8.10;;;3.90;;
76729;SDS011;65653;53.106;18.046;2023-09-19T02:22:53;5.60;;;3.60;;
76729;SDS011;65653;53.106;18.046;2023-09-19T02:25:19;6.90;;;4.40;;
76729;SDS011;65653;53.106;18.046;2023-09-19T02:27:46;6.90;;;4.60;;
76729;SDS011;65653;53.106;18.046;2023-09-19T02:30:12;8.00;;;4.90;;
76729;SDS011;65653;53.106;18.046;2023-09-19T02:32:42;8.40;;;3.90;;
76729;SDS011;65653;53.106;18.046;2023-09-19T02:35:08;9.90;;;5.60;;
76729;SDS011;65653;53.106;18.046;2023-09-19T02:37:37;9.20;;;5.70;;
76729;SDS011;65653;53.106;18.046;2023-09-19T02:40:04;7.20;;;5.10;;
76729;SDS011;65653;53.106;18.046;2023-09-19T02:42:47;10.30;;;7.10;;
76729;SDS011;65653;53.106;18.046;2023-09-19T02:45:16;9.70;;;6.90;;
76729;SDS011;65653;53.106;18.046;2023-09-19T02:47:46;14.60;;;7.40;;
76729;SDS011;65653;53.106;18.046;2023-09-19T02:50:14;10.80;;;7.30;;
76729;SDS011;65653;53.106;18.046;2023-09-19T02:52:42;12.70;;;7.80;;
76729;SDS011;65653;53.106;18.046;2023-09-19T02:55:10;10.20;;;7.20;;
76729;SDS011;65653;53.106;18.046;2023-09-19T02:57:38;12.20;;;6.10;;
76729;SDS011;65653;53.106;18.046;2023-09-19T03:00:07;12.90;;;7.70;;
76729;SDS011;65653;53.106;18.046;2023-09-19T03:02:36;10.30;;;7.40;;
76729;SDS011;65653;53.106;18.046;2023-09-19T03:05:04;11.40;;;8.30;;
76729;SDS011;65653;53.106;18.046;2023-09-19T03:07:31;11.80;;;7.80;;
76729;SDS011;65653;53.106;18.046;2023-09-19T03:09:58;10.90;;;6.80;;
76729;SDS011;65653;53.106;18.046;2023-09-19T03:12:24;10.70;;;7.10;;
76729;SDS011;65653;53.106;18.046;2023-09-19T03:14:51;11.00;;;6.80;;
76729;SDS011;65653;53.106;18.046;2023-09-19T03:17:17;13.80;;;7.30;;
76729;SDS011;65653;53.106;18.046;2023-09-19T03:19:46;10.70;;;7.30;;
76729;SDS011;65653;53.106;18.046;2023-09-19T03:22:14;11.40;;;6.90;;
76729;SDS011;65653;53.106;18.046;2023-09-19T03:24:41;9.00;;;5.10;;
76729;SDS011;65653;53.106;18.046;2023-09-19T03:27:09;9.60;;;5.80;;
76729;SDS011;65653;53.106;18.046;2023-09-19T03:29:36;11.90;;;7.20;;
76729;SDS011;65653;53.106;18.046;2023-09-19T03:32:03;9.60;;;6.40;;
76729;SDS011;65653;53.106;18.046;2023-09-19T03:34:30;10.40;;;6.50;;
76729;SDS011;65653;53.106;18.046;2023-09-19T03:36:56;13.70;;;7.10;;
76729;SDS011;65653;53.106;18.046;2023-09-19T03:39:23;10.30;;;7.10;;
76729;SDS011;65653;53.106;18.046;2023-09-19T03:41:49;11.90;;;6.20;;
76729;SDS011;65653;53.106;18.046;2023-09-19T03:44:16;10.30;;;6.30;;
76729;SDS011;65653;53.106;18.046;2023-09-19T03:46:42;11.80;;;6.60;;
76729;SDS011;65653;53.106;18.046;2023-09-19T03:49:09;14.20;;;6.80;;
76729;SDS011;65653;53.106;18.046;2023-09-19T03:51:36;13.60;;;7.10;;
76729;SDS011;65653;53.106;18.046;2023-09-19T03:54:03;16.50;;;7.40;;
76729;SDS011;65653;53.106;18.046;2023-09-19T03:56:30;13.30;;;7.60;;
76729;SDS011;65653;53.106;18.046;2023-09-19T03:58:57;12.40;;;7.30;;
76729;SDS011;65653;53.106;18.046;2023-09-19T04:01:24;10.90;;;7.40;;
76729;SDS011;65653;53.106;18.046;2023-09-19T04:03:50;13.20;;;7.30;;
76729;SDS011;65653;53.106;18.046;2023-09-19T04:06:19;10.50;;;6.80;;
76729;SDS011;65653;53.106;18.046;2023-09-19T04:08:46;9.30;;;5.50;;
76729;SDS011;65653;53.106;18.046;2023-09-19T04:11:14;13.70;;;7.20;;
76729;SDS011;65653;53.106;18.046;2023-09-19T04:13:40;11.20;;;6.20;;
76729;SDS011;65653;53.106;18.046;2023-09-19T04:16:07;10.10;;;6.00;;
76729;SDS011;65653;53.106;18.046;2023-09-19T04:18:34;13.80;;;6.30;;
76729;SDS011;65653;53.106;18.046;2023-09-19T04:21:03;9.40;;;5.70;;
76729;SDS011;65653;53.106;18.046;2023-09-19T04:23:32;7.70;;;4.40;;
76729;SDS011;65653;53.106;18.046;2023-09-19T04:25:59;9.50;;;5.20;;
76729;SDS011;65653;53.106;18.046;2023-09-19T04:28:26;9.10;;;4.80;;
76729;SDS011;65653;53.106;18.046;2023-09-19T04:30:54;6.50;;;4.00;;
76729;SDS011;65653;53.106;18.046;2023-09-19T04:33:21;6.70;;;4.20;;
76729;SDS011;65653;53.106;18.046;2023-09-19T04:35:51;9.00;;;4.90;;
76729;SDS011;65653;53.106;18.046;2023-09-19T04:38:18;8.50;;;4.60;;
76729;SDS011;65653;53.106;18.046;2023-09-19T04:40:46;8.10;;;4.70;;
76729;SDS011;65653;53.106;18.046;2023-09-19T04:43:12;11.40;;;5.70;;
76729;SDS011;65653;53.106;18.046;2023-09-19T04:45:39;11.40;;;5.30;;
76729;SDS011;65653;53.106;18.046;2023-09-19T04:48:08;7.80;;;5.20;;
76729;SDS011;65653;53.106;18.046;2023-09-19T04:50:35;9.50;;;6.10;;
76729;SDS011;65653;53.106;18.046;2023-09-19T04:53:01;8.50;;;5.30;;
76729;SDS011;65653;53.106;18.046;2023-09-19T04:55:27;10.60;;;6.40;;
76729;SDS011;65653;53.106;18.046;2023-09-19T04:57:54;9.80;;;5.50;;
76729;SDS011;65653;53.106;18.046;2023-09-19T05:00:21;10.30;;;5.50;;
76729;SDS011;65653;53.106;18.046;2023-09-19T05:02:57;9.70;;;5.30;;
76729;SDS011;65653;53.106;18.046;2023-09-19T05:05:23;11.80;;;6.10;;
76729;SDS011;65653;53.106;18.046;2023-09-19T05:07:51;9.20;;;4.50;;
76729;SDS011;65653;53.106;18.046;2023-09-19T05:10:20;9.90;;;6.00;;
76729;SDS011;65653;53.106;18.046;2023-09-19T05:12:46;5.70;;;4.30;;
76729;SDS011;65653;53.106;18.046;2023-09-19T05:15:14;7.40;;;3.90;;
76729;SDS011;65653;53.106;18.046;2023-09-19T05:17:49;6.20;;;5.10;;
76729;SDS011;65653;53.106;18.046;2023-09-19T05:20:18;7.90;;;5.20;;
76729;SDS011;65653;53.106;18.046;2023-09-19T05:22:59;10.80;;;5.20;;
76729;SDS011;65653;53.106;18.046;2023-09-19T05:25:31;8.30;;;4.80;;
76729;SDS011;65653;53.106;18.046;2023-09-19T05:27:58;11.40;;;5.10;;
76729;SDS011;65653;53.106;18.046;2023-09-19T05:30:26;46.40;;;26.10;;
76729;SDS011;65653;53.106;18.046;2023-09-19T05:32:55;9.90;;;5.60;;
76729;SDS011;65653;53.106;18.046;2023-09-19T05:35:23;7.50;;;4.80;;
76729;SDS011;65653;53.106;18.046;2023-09-19T05:37:51;8.50;;;4.80;;
76729;SDS011;65653;53.106;18.046;2023-09-19T05:40:19;9.20;;;5.10;;
76729;SDS011;65653;53.106;18.046;2023-09-19T05:42:46;8.50;;;4.90;;
76729;SDS011;65653;53.106;18.046;2023-09-19T05:45:13;6.90;;;4.70;;
76729;SDS011;65653;53.106;18.046;2023-09-19T05:47:40;9.00;;;4.90;;
76729;SDS011;65653;53.106;18.046;2023-09-19T05:50:10;6.80;;;4.50;;
76729;SDS011;65653;53.106;18.046;2023-09-19T05:52:38;6.90;;;4.90;;
76729;SDS011;65653;53.106;18.046;2023-09-19T05:55:05;6.70;;;4.40;;
76729;SDS011;65653;53.106;18.046;2023-09-19T05:57:36;6.00;;;3.60;;
76729;SDS011;65653;53.106;18.046;2023-09-19T06:00:05;7.40;;;4.50;;
76729;SDS011;65653;53.106;18.046;2023-09-19T06:02:39;9.10;;;5.30;;
76729;SDS011;65653;53.106;18.046;2023-09-19T06:05:07;5.70;;;4.20;;
76729;SDS011;65653;53.106;18.046;2023-09-19T06:07:37;5.90;;;3.50;;
76729;SDS011;65653;53.106;18.046;2023-09-19T06:10:03;7.90;;;4.70;;
76729;SDS011;65653;53.106;18.046;2023-09-19T06:12:37;8.50;;;4.70;;
76729;SDS011;65653;53.106;18.046;2023-09-19T06:15:04;7.20;;;4.30;;
76729;SDS011;65653;53.106;18.046;2023-09-19T06:17:32;6.40;;;4.80;;
76729;SDS011;65653;53.106;18.046;2023-09-19T06:19:59;5.70;;;4.00;;
76729;SDS011;65653;53.106;18.046;2023-09-19T06:22:25;6.50;;;4.90;;
76729;SDS011;65653;53.106;18.046;2023-09-19T06:24:52;9.00;;;5.60;;
76729;SDS011;65653;53.106;18.046;2023-09-19T06:27:19;6.60;;;5.40;;
76729;SDS011;65653;53.106;18.046;2023-09-19T06:29:46;7.10;;;6.30;;
76729;SDS011;65653;53.106;18.046;2023-09-19T06:32:12;6.40;;;5.20;;
76729;SDS011;65653;53.106;18.046;2023-09-19T06:34:38;6.80;;;5.20;;
76729;SDS011;65653;53.106;18.046;2023-09-19T06:37:09;6.70;;;4.30;;
76729;SDS011;65653;53.106;18.046;2023-09-19T06:39:36;7.70;;;4.70;;
76729;SDS011;65653;53.106;18.046;2023-09-19T06:42:02;5.20;;;4.70;;
76729;SDS011;65653;53.106;18.046;2023-09-19T06:44:30;7.10;;;5.70;;
76729;SDS011;65653;53.106;18.046;2023-09-19T06:46:58;8.10;;;5.80;;
76729;SDS011;65653;53.106;18.046;2023-09-19T06:49:24;9.20;;;5.10;;
76729;SDS011;65653;53.106;18.046;2023-09-19T06:51:53;8.10;;;5.70;;
76729;SDS011;65653;53.106;18.046;2023-09-19T06:54:20;9.20;;;6.60;;
76729;SDS011;65653;53.106;18.046;2023-09-19T06:56:47;6.90;;;5.60;;
76729;SDS011;65653;53.106;18.046;2023-09-19T06:59:14;7.50;;;6.10;;
76729;SDS011;65653;53.106;18.046;2023-09-19T07:01:40;9.60;;;6.40;;
76729;SDS011;65653;53.106;18.046;2023-09-19T07:04:07;9.20;;;5.80;;
76729;SDS011;65653;53.106;18.046;2023-09-19T07:06:34;6.80;;;5.80;;
76729;SDS011;65653;53.106;18.046;2023-09-19T07:09:01;11.30;;;6.00;;
76729;SDS011;65653;53.106;18.046;2023-09-19T07:11:27;7.50;;;6.00;;
76729;SDS011;65653;53.106;18.046;2023-09-19T07:13:57;6.90;;;6.00;;
76729;SDS011;65653;53.106;18.046;2023-09-19T07:16:24;7.00;;;5.20;;
76729;SDS011;65653;53.106;18.046;2023-09-19T07:18:57;5.70;;;5.00;;
76729;SDS011;65653;53.106;18.046;2023-09-19T07:21:24;5.60;;;5.10;;
76729;SDS011;65653;53.106;18.046;2023-09-19T07:23:51;7.10;;;5.60;;
76729;SDS011;65653;53.106;18.046;2023-09-19T07:26:18;5.60;;;4.30;;
76729;SDS011;65653;53.106;18.046;2023-09-19T07:28:44;6.80;;;5.10;;
76729;SDS011;65653;53.106;18.046;2023-09-19T07:31:11;6.80;;;5.10;;
76729;SDS011;65653;53.106;18.046;2023-09-19T07:33:40;6.80;;;5.40;;
76729;SDS011;65653;53.106;18.046;2023-09-19T07:36:09;8.20;;;5.20;;
76729;SDS011;65653;53.106;18.046;2023-09-19T07:38:37;7.40;;;5.20;;
76729;SDS011;65653;53.106;18.046;2023-09-19T07:41:04;5.70;;;5.10;;
76729;SDS011;65653;53.106;18.046;2023-09-19T07:43:31;5.60;;;4.80;;
76729;SDS011;65653;53.106;18.046;2023-09-19T07:46:02;5.00;;;4.50;;
76729;SDS011;65653;53.106;18.046;2023-09-19T07:48:33;8.70;;;5.00;;
76729;SDS011;65653;53.106;18.046;2023-09-19T07:51:02;5.90;;;4.30;;
76729;SDS011;65653;53.106;18.046;2023-09-19T07:53:30;6.40;;;4.30;;
76729;SDS011;65653;53.106;18.046;2023-09-19T07:56:04;8.20;;;5.00;;
76729;SDS011;65653;53.106;18.046;2023-09-19T07:58:32;6.00;;;4.40;;
76729;SDS011;65653;53.106;18.046;2023-09-19T08:01:07;5.90;;;5.20;;
76729;SDS011;65653;53.106;18.046;2023-09-19T08:03:34;5.40;;;4.50;;
76729;SDS011;65653;53.106;18.046;2023-09-19T08:06:01;6.70;;;4.20;;
76729;SDS011;65653;53.106;18.046;2023-09-19T08:08:27;7.00;;;5.10;;
76729;SDS011;65653;53.106;18.046;2023-09-19T08:10:54;7.10;;;5.00;;
76729;SDS011;65653;53.106;18.046;2023-09-19T08:13:25;6.30;;;4.70;;
76729;SDS011;65653;53.106;18.046;2023-09-19T08:15:52;5.50;;;4.40;;
76729;SDS011;65653;53.106;18.046;2023-09-19T08:18:19;5.80;;;4.20;;
76729;SDS011;65653;53.106;18.046;2023-09-19T08:20:51;8.00;;;4.00;;
76729;SDS011;65653;53.106;18.046;2023-09-19T08:23:19;6.30;;;4.90;;
76729;SDS011;65653;53.106;18.046;2023-09-19T08:25:47;4.80;;;3.60;;
76729;SDS011;65653;53.106;18.046;2023-09-19T08:28:14;4.50;;;2.90;;
76729;SDS011;65653;53.106;18.046;2023-09-19T08:30:45;3.80;;;3.40;;
76729;SDS011;65653;53.106;18.046;2023-09-19T08:33:12;3.60;;;3.30;;
76729;SDS011;65653;53.106;18.046;2023-09-19T08:35:41;5.70;;;4.00;;
76729;SDS011;65653;53.106;18.046;2023-09-19T08:38:09;6.70;;;3.70;;
76729;SDS011;65653;53.106;18.046;2023-09-19T08:40:38;4.60;;;3.70;;
76729;SDS011;65653;53.106;18.046;2023-09-19T08:43:06;5.60;;;3.40;;
76729;SDS011;65653;53.106;18.046;2023-09-19T08:45:34;4.00;;;3.30;;
76729;SDS011;65653;53.106;18.046;2023-09-19T08:48:17;6.40;;;3.10;;
76729;SDS011;65653;53.106;18.046;2023-09-19T08:53:24;4.50;;;3.00;;
76729;SDS011;65653;53.106;18.046;2023-09-19T08:55:59;2.90;;;2.60;;
76729;SDS011;65653;53.106;18.046;2023-09-19T09:00:59;4.40;;;2.80;;
76729;SDS011;65653;53.106;18.046;2023-09-19T09:03:29;4.60;;;2.90;;
76729;SDS011;65653;53.106;18.046;2023-09-19T09:05:59;3.90;;;2.60;;
76729;SDS011;65653;53.106;18.046;2023-09-19T09:08:26;4.70;;;3.00;;
76729;SDS011;65653;53.106;18.046;2023-09-19T09:10:54;2.70;;;2.00;;
76729;SDS011;65653;53.106;18.046;2023-09-19T09:13:21;2.60;;;2.20;;
76729;SDS011;65653;53.106;18.046;2023-09-19T09:15:51;2.50;;;2.00;;
76729;SDS011;65653;53.106;18.046;2023-09-19T09:18:18;2.80;;;1.80;;
76729;SDS011;65653;53.106;18.046;2023-09-19T09:20:46;4.10;;;1.80;;
76729;SDS011;65653;53.106;18.046;2023-09-19T09:23:15;4.20;;;1.60;;
76729;SDS011;65653;53.106;18.046;2023-09-19T09:25:51;4.10;;;2.00;;
76729;SDS011;65653;53.106;18.046;2023-09-19T09:28:23;3.20;;;1.50;;
76729;SDS011;65653;53.106;18.046;2023-09-19T09:30:51;2.50;;;1.60;;
76729;SDS011;65653;53.106;18.046;2023-09-19T09:33:18;3.10;;;1.40;;
76729;SDS011;65653;53.106;18.046;2023-09-19T09:35:55;3.10;;;1.40;;
76729;SDS011;65653;53.106;18.046;2023-09-19T09:38:27;2.60;;;1.60;;
76729;SDS011;65653;53.106;18.046;2023-09-19T09:40:59;3.60;;;1.70;;
76729;SDS011;65653;53.106;18.046;2023-09-19T09:43:40;2.10;;;1.50;;
76729;SDS011;65653;53.106;18.046;2023-09-19T09:46:17;3.10;;;1.70;;
76729;SDS011;65653;53.106;18.046;2023-09-19T09:51:44;2.60;;;1.30;;
76729;SDS011;65653;53.106;18.046;2023-09-19T09:54:16;1.90;;;1.40;;
76729;SDS011;65653;53.106;18.046;2023-09-19T09:56:53;3.00;;;1.20;;
76729;SDS011;65653;53.106;18.046;2023-09-19T10:02:16;1.20;;;1.10;;
76729;SDS011;65653;53.106;18.046;2023-09-19T10:07:28;1.80;;;1.00;;
76729;SDS011;65653;53.106;18.046;2023-09-19T10:10:02;2.50;;;1.00;;
76729;SDS011;65653;53.106;18.046;2023-09-19T10:12:52;3.00;;;1.00;;
76729;SDS011;65653;53.106;18.046;2023-09-19T10:15:22;2.40;;;1.10;;
76729;SDS011;65653;53.106;18.046;2023-09-19T10:17:53;3.70;;;1.10;;
76729;SDS011;65653;53.106;18.046;2023-09-19T10:20:24;1.80;;;1.00;;
76729;SDS011;65653;53.106;18.046;2023-09-19T10:23:04;0.90;;;0.70;;
76729;SDS011;65653;53.106;18.046;2023-09-19T10:25:36;2.40;;;1.10;;
76729;SDS011;65653;53.106;18.046;2023-09-19T10:28:05;2.90;;;1.10;;
76729;SDS011;65653;53.106;18.046;2023-09-19T10:30:37;2.10;;;1.10;;
76729;SDS011;65653;53.106;18.046;2023-09-19T10:33:11;2.20;;;1.10;;
76729;SDS011;65653;53.106;18.046;2023-09-19T10:35:40;3.10;;;1.00;;
76729;SDS011;65653;53.106;18.046;2023-09-19T10:38:10;1.60;;;1.30;;
76729;SDS011;65653;53.106;18.046;2023-09-19T10:40:38;4.40;;;1.10;;
76729;SDS011;65653;53.106;18.046;2023-09-19T10:43:12;4.30;;;1.10;;
76729;SDS011;65653;53.106;18.046;2023-09-19T10:45:43;3.10;;;1.30;;
76729;SDS011;65653;53.106;18.046;2023-09-19T10:48:13;1.30;;;1.10;;
76729;SDS011;65653;53.106;18.046;2023-09-19T10:50:48;3.10;;;1.40;;
76729;SDS011;65653;53.106;18.046;2023-09-19T10:53:25;2.20;;;0.80;;
76729;SDS011;65653;53.106;18.046;2023-09-19T10:55:57;2.00;;;0.90;;
76729;SDS011;65653;53.106;18.046;2023-09-19T10:58:27;1.80;;;1.10;;
76729;SDS011;65653;53.106;18.046;2023-09-19T11:01:00;2.30;;;1.00;;
76729;SDS011;65653;53.106;18.046;2023-09-19T11:03:38;1.00;;;0.80;;
76729;SDS011;65653;53.106;18.046;2023-09-19T11:06:10;3.40;;;1.30;;
76729;SDS011;65653;53.106;18.046;2023-09-19T11:08:56;1.80;;;1.00;;
76729;SDS011;65653;53.106;18.046;2023-09-19T11:11:40;2.40;;;1.20;;
76729;SDS011;65653;53.106;18.046;2023-09-19T11:17:36;3.80;;;0.90;;
76729;SDS011;65653;53.106;18.046;2023-09-19T11:25:44;0.90;;;0.70;;
76729;SDS011;65653;53.106;18.046;2023-09-19T11:30:45;1.40;;;0.70;;
76729;SDS011;65653;53.106;18.046;2023-09-19T11:33:15;2.10;;;1.00;;
76729;SDS011;65653;53.106;18.046;2023-09-19T11:36:01;1.50;;;0.90;;
76729;SDS011;65653;53.106;18.046;2023-09-19T11:44:38;1.70;;;1.00;;
76729;SDS011;65653;53.106;18.046;2023-09-19T11:49:19;5.70;;;1.10;;
76729;SDS011;65653;53.106;18.046;2023-09-19T11:51:52;3.90;;;1.10;;
76729;SDS011;65653;53.106;18.046;2023-09-19T11:54:20;1.80;;;1.10;;
76729;SDS011;65653;53.106;18.046;2023-09-19T11:56:51;1.50;;;1.00;;
76729;SDS011;65653;53.106;18.046;2023-09-19T11:59:26;3.40;;;1.10;;
76729;SDS011;65653;53.106;18.046;2023-09-19T12:02:05;3.20;;;1.10;;
76729;SDS011;65653;53.106;18.046;2023-09-19T12:04:38;5.30;;;1.10;;
76729;SDS011;65653;53.106;18.046;2023-09-19T12:07:09;2.10;;;0.80;;
76729;SDS011;65653;53.106;18.046;2023-09-19T12:09:42;1.30;;;0.80;;
76729;SDS011;65653;53.106;18.046;2023-09-19T12:12:10;2.30;;;1.00;;
76729;SDS011;65653;53.106;18.046;2023-09-19T12:14:49;3.20;;;1.00;;
76729;SDS011;65653;53.106;18.046;2023-09-19T12:17:19;2.40;;;0.90;;
76729;SDS011;65653;53.106;18.046;2023-09-19T12:19:56;1.00;;;0.90;;
76729;SDS011;65653;53.106;18.046;2023-09-19T12:22:23;3.80;;;1.10;;
76729;SDS011;65653;53.106;18.046;2023-09-19T12:24:51;2.80;;;1.10;;
76729;SDS011;65653;53.106;18.046;2023-09-19T12:29:48;1.00;;;0.80;;
76729;SDS011;65653;53.106;18.046;2023-09-19T12:32:15;1.40;;;0.80;;
76729;SDS011;65653;53.106;18.046;2023-09-19T12:34:49;4.30;;;1.20;;
76729;SDS011;65653;53.106;18.046;2023-09-19T12:37:18;2.10;;;1.00;;
76729;SDS011;65653;53.106;18.046;2023-09-19T12:39:50;1.40;;;0.90;;
76729;SDS011;65653;53.106;18.046;2023-09-19T12:42:46;1.10;;;0.80;;
76729;SDS011;65653;53.106;18.046;2023-09-19T12:45:14;1.70;;;1.00;;
76729;SDS011;65653;53.106;18.046;2023-09-19T12:50:28;1.00;;;0.70;;
76729;SDS011;65653;53.106;18.046;2023-09-19T12:52:55;2.00;;;0.90;;
76729;SDS011;65653;53.106;18.046;2023-09-19T12:55:28;3.00;;;0.80;;
76729;SDS011;65653;53.106;18.046;2023-09-19T12:58:08;1.70;;;1.00;;
76729;SDS011;65653;53.106;18.046;2023-09-19T13:00:42;2.00;;;0.90;;
76729;SDS011;65653;53.106;18.046;2023-09-19T13:07:02;3.90;;;1.30;;
76729;SDS011;65653;53.106;18.046;2023-09-19T13:09:28;3.00;;;1.20;;
76729;SDS011;65653;53.106;18.046;2023-09-19T13:12:00;2.60;;;1.00;;
76729;SDS011;65653;53.106;18.046;2023-09-19T13:14:29;2.20;;;1.30;;
76729;SDS011;65653;53.106;18.046;2023-09-19T13:17:06;3.20;;;1.30;;
76729;SDS011;65653;53.106;18.046;2023-09-19T13:19:51;1.80;;;1.20;;
76729;SDS011;65653;53.106;18.046;2023-09-19T13:29:21;1.70;;;1.00;;
76729;SDS011;65653;53.106;18.046;2023-09-19T13:37:19;5.80;;;1.60;;
76729;SDS011;65653;53.106;18.046;2023-09-19T13:39:59;1.80;;;1.20;;
76729;SDS011;65653;53.106;18.046;2023-09-19T13:42:26;2.40;;;1.30;;
76729;SDS011;65653;53.106;18.046;2023-09-19T13:44:56;2.20;;;1.20;;
76729;SDS011;65653;53.106;18.046;2023-09-19T13:47:23;2.80;;;1.50;;
76729;SDS011;65653;53.106;18.046;2023-09-19T13:49:52;1.90;;;1.20;;
76729;SDS011;65653;53.106;18.046;2023-09-19T13:52:21;2.00;;;1.20;;
76729;SDS011;65653;53.106;18.046;2023-09-19T13:54:54;2.10;;;1.10;;
76729;SDS011;65653;53.106;18.046;2023-09-19T13:57:26;3.80;;;1.50;;
76729;SDS011;65653;53.106;18.046;2023-09-19T13:59:54;2.00;;;1.40;;
76729;SDS011;65653;53.106;18.046;2023-09-19T14:02:21;3.00;;;1.60;;
76729;SDS011;65653;53.106;18.046;2023-09-19T14:04:51;2.00;;;1.20;;
76729;SDS011;65653;53.106;18.046;2023-09-19T14:07:18;3.90;;;1.40;;
76729;SDS011;65653;53.106;18.046;2023-09-19T14:09:46;1.40;;;1.30;;
76729;SDS011;65653;53.106;18.046;2023-09-19T14:12:13;3.90;;;1.90;;
76729;SDS011;65653;53.106;18.046;2023-09-19T14:14:40;5.40;;;1.70;;
76729;SDS011;65653;53.106;18.046;2023-09-19T14:17:08;5.20;;;1.80;;
76729;SDS011;65653;53.106;18.046;2023-09-19T14:19:38;4.50;;;1.80;;
76729;SDS011;65653;53.106;18.046;2023-09-19T14:22:07;2.90;;;1.70;;
76729;SDS011;65653;53.106;18.046;2023-09-19T14:24:34;2.50;;;1.80;;
76729;SDS011;65653;53.106;18.046;2023-09-19T14:27:01;4.50;;;2.00;;
76729;SDS011;65653;53.106;18.046;2023-09-19T14:29:29;2.80;;;1.60;;
76729;SDS011;65653;53.106;18.046;2023-09-19T14:31:57;3.80;;;1.90;;
76729;SDS011;65653;53.106;18.046;2023-09-19T14:34:24;4.00;;;2.00;;
76729;SDS011;65653;53.106;18.046;2023-09-19T14:36:50;3.50;;;2.10;;
76729;SDS011;65653;53.106;18.046;2023-09-19T14:39:16;2.00;;;1.40;;
76729;SDS011;65653;53.106;18.046;2023-09-19T14:41:43;2.60;;;1.50;;
76729;SDS011;65653;53.106;18.046;2023-09-19T14:44:11;4.40;;;1.90;;
76729;SDS011;65653;53.106;18.046;2023-09-19T14:46:38;2.80;;;1.80;;
76729;SDS011;65653;53.106;18.046;2023-09-19T14:49:04;2.20;;;1.70;;
76729;SDS011;65653;53.106;18.046;2023-09-19T14:51:32;2.70;;;1.70;;
76729;SDS011;65653;53.106;18.046;2023-09-19T14:53:58;2.50;;;1.60;;
76729;SDS011;65653;53.106;18.046;2023-09-19T14:56:28;3.20;;;1.60;;
76729;SDS011;65653;53.106;18.046;2023-09-19T14:58:57;2.50;;;1.80;;
76729;SDS011;65653;53.106;18.046;2023-09-19T15:01:24;2.60;;;1.70;;
76729;SDS011;65653;53.106;18.046;2023-09-19T15:03:50;4.40;;;1.90;;
76729;SDS011;65653;53.106;18.046;2023-09-19T15:06:17;3.10;;;1.70;;
76729;SDS011;65653;53.106;18.046;2023-09-19T15:08:46;2.90;;;1.90;;
76729;SDS011;65653;53.106;18.046;2023-09-19T15:11:14;3.40;;;1.50;;
76729;SDS011;65653;53.106;18.046;2023-09-19T15:13:46;4.50;;;2.00;;
76729;SDS011;65653;53.106;18.046;2023-09-19T15:16:13;4.50;;;2.30;;
76729;SDS011;65653;53.106;18.046;2023-09-19T15:18:41;1.80;;;1.40;;
76729;SDS011;65653;53.106;18.046;2023-09-19T15:21:09;4.40;;;1.80;;
76729;SDS011;65653;53.106;18.046;2023-09-19T15:23:38;4.40;;;1.90;;
76729;SDS011;65653;53.106;18.046;2023-09-19T15:26:07;3.80;;;1.80;;
76729;SDS011;65653;53.106;18.046;2023-09-19T15:28:40;3.70;;;1.70;;
76729;SDS011;65653;53.106;18.046;2023-09-19T15:31:08;5.90;;;1.90;;
76729;SDS011;65653;53.106;18.046;2023-09-19T15:33:36;3.00;;;1.80;;
76729;SDS011;65653;53.106;18.046;2023-09-19T15:36:07;2.70;;;1.70;;
76729;SDS011;65653;53.106;18.046;2023-09-19T15:38:50;3.80;;;1.70;;
76729;SDS011;65653;53.106;18.046;2023-09-19T15:41:30;4.40;;;1.60;;
76729;SDS011;65653;53.106;18.046;2023-09-19T15:43:59;3.80;;;2.10;;
76729;SDS011;65653;53.106;18.046;2023-09-19T15:46:30;2.60;;;1.80;;
76729;SDS011;65653;53.106;18.046;2023-09-19T15:48:59;4.00;;;1.50;;
76729;SDS011;65653;53.106;18.046;2023-09-19T15:51:26;4.50;;;2.10;;
76729;SDS011;65653;53.106;18.046;2023-09-19T15:53:54;6.10;;;1.80;;
76729;SDS011;65653;53.106;18.046;2023-09-19T15:56:23;6.90;;;1.50;;
76729;SDS011;65653;53.106;18.046;2023-09-19T15:58:51;2.40;;;1.50;;
76729;SDS011;65653;53.106;18.046;2023-09-19T16:01:20;4.40;;;2.20;;
76729;SDS011;65653;53.106;18.046;2023-09-19T16:03:51;3.20;;;1.90;;